Time;durP1;ratioP1;P1;durP2;ratioP2;P2;SDS_P1;SDS_P2;PMS_P1;PMS_P2;Temp;Humidity;BMP_temperature;BMP_pressure;BME280_temperature;BME280_humidity;BME280_pressure;Samples;Min_cycle;Max_cycle;Signal;HPM_P1;HPM_P2
2023/05/23 00:03:16;;;;;;;11.70;5.13;;;10.90;99.90;;;;;;8358217;28;20194;-64
2023/05/23 00:07:17;;;;;;;5.87;5.27;;;11.00;99.90;;;;;;8352915;28;20191;-64
2023/05/23 00:11:19;;;;;;;5.87;4.53;;;11.00;99.90;;;;;;8349785;28;20187;-63
2023/05/23 00:15:21;;;;;;;7.57;5.10;;;11.00;99.90;;;;;;8354208;28;20186;-66
2023/05/23 00:19:22;;;;;;;6.37;5.03;;;10.90;99.90;;;;;;8349216;28;20212;-64
2023/05/23 00:23:24;;;;;;;5.67;4.37;;;10.80;99.90;;;;;;8347288;28;20247;-64
2023/05/23 00:27:25;;;;;;;6.40;5.07;;;10.70;99.90;;;;;;8331827;28;20378;-64
2023/05/23 00:31:26;;;;;;;5.53;4.60;;;10.60;99.90;;;;;;8348196;28;20214;-64
2023/05/23 00:35:27;;;;;;;7.03;4.83;;;10.60;99.90;;;;;;8346841;28;20189;-65
2023/05/23 00:39:28;;;;;;;5.57;4.43;;;10.60;99.90;;;;;;8345037;28;20205;-66
2023/05/23 00:43:30;;;;;;;6.70;5.17;;;10.70;99.90;;;;;;8345833;28;20179;-66
2023/05/23 00:47:31;;;;;;;6.90;4.60;;;10.90;99.90;;;;;;8349398;28;20190;-66
2023/05/23 00:51:32;;;;;;;6.70;4.77;;;11.00;99.90;;;;;;8344913;28;20186;-64
2023/05/23 00:55:33;;;;;;;8.50;5.47;;;11.10;99.90;;;;;;8351618;28;20193;-65
2023/05/23 00:59:36;;;;;;;7.40;5.50;;;11.10;99.90;;;;;;8339448;28;20188;-65
2023/05/23 01:03:37;;;;;;;7.47;5.07;;;11.10;99.90;;;;;;8344954;28;20215;-64
2023/05/23 01:07:40;;;;;;;6.57;5.13;;;11.20;99.90;;;;;;8349257;28;20241;-63
2023/05/23 01:11:50;;;;;;;7.57;5.00;;;11.20;99.90;;;;;;8345854;28;20254;-64
2023/05/23 01:16:08;;;;;;;6.33;4.50;;;11.30;99.90;;;;;;8341620;28;20261;-63
2023/05/23 01:20:24;;;;;;;5.97;4.97;;;11.30;68.30;;;;;;8358495;28;20272;-64
2023/05/23 01:25:09;;;;;;;7.50;5.23;;;11.30;39.70;;;;;;8339682;28;20180;-64
2023/05/23 01:29:13;;;;;;;7.27;5.20;;;11.30;29.20;;;;;;8345095;28;20193;-64
2023/05/23 01:33:17;;;;;;;6.80;5.30;;;11.30;22.10;;;;;;8346270;28;20192;-64
2023/05/23 01:37:18;;;;;;;7.07;5.23;;;11.20;25.10;;;;;;8352323;28;20299;-64
2023/05/23 01:41:19;;;;;;;6.43;5.23;;;11.20;40.10;;;;;;8343187;28;20294;-65
2023/05/23 01:45:20;;;;;;;6.93;5.23;;;11.20;57.50;;;;;;8344960;28;20187;-65
2023/05/23 01:49:23;;;;;;;8.00;6.03;;;11.30;51.80;;;;;;8347183;28;20195;-64
2023/05/23 01:53:25;;;;;;;8.37;5.13;;;11.30;34.90;;;;;;8346281;28;20192;-65
2023/05/23 01:57:28;;;;;;;9.20;5.77;;;11.30;21.50;;;;;;8350944;28;20208;-64
2023/05/23 02:01:30;;;;;;;7.53;5.57;;;11.30;20.30;;;;;;8344590;28;20219;-64
2023/05/23 02:05:31;;;;;;;9.30;6.70;;;11.30;11.40;;;;;;8344616;28;20210;-63
2023/05/23 02:09:32;;;;;;;9.13;6.20;;;11.30;22.90;;;;;;8344807;28;20211;-64
2023/05/23 02:13:33;;;;;;;8.97;6.10;;;11.30;14.90;;;;;;8349576;28;20220;-64
2023/05/23 02:17:34;;;;;;;8.70;6.17;;;11.30;21.90;;;;;;8348578;28;20306;-63
2023/05/23 02:21:35;;;;;;;6.57;5.57;;;11.30;24.10;;;;;;8344157;28;20188;-63
2023/05/23 02:25:36;;;;;;;8.10;5.73;;;11.30;34.10;;;;;;8362521;28;20295;-63
2023/05/23 02:29:38;;;;;;;6.37;5.37;;;11.20;57.70;;;;;;8351943;28;20198;-64
2023/05/23 02:33:39;;;;;;;9.63;5.50;;;11.20;67.90;;;;;;8347982;28;20210;-65
2023/05/23 02:37:40;;;;;;;6.40;5.67;;;11.20;99.90;;;;;;8360175;28;20209;-63
2023/05/23 02:41:41;;;;;;;7.63;5.50;;;11.20;99.90;;;;;;8349093;28;20195;-64
2023/05/23 02:45:42;;;;;;;8.30;6.13;;;11.10;99.90;;;;;;8348260;28;20185;-64
2023/05/23 02:49:43;;;;;;;7.63;5.80;;;11.10;99.90;;;;;;8349534;28;20193;-64
2023/05/23 02:53:45;;;;;;;8.33;6.10;;;11.10;99.90;;;;;;8350961;28;20241;-64
2023/05/23 02:57:45;;;;;;;8.07;5.80;;;11.10;99.90;;;;;;8349514;28;20220;-64
2023/05/23 03:01:46;;;;;;;7.47;5.83;;;11.20;99.90;;;;;;8347248;28;20183;-63
2023/05/23 03:05:47;;;;;;;8.83;7.47;;;11.30;99.90;;;;;;8349111;28;20208;-64
2023/05/23 03:09:48;;;;;;;10.57;6.70;;;11.40;65.20;;;;;;8348394;28;20211;-65
2023/05/23 03:13:49;;;;;;;7.50;6.40;;;11.50;4.70;;;;;;8347488;28;20296;-67
2023/05/23 03:17:50;;;;;;;7.77;6.10;;;11.70;1.00;;;;;;8347948;28;20212;-67
2023/05/23 03:21:51;;;;;;;7.33;6.37;;;11.90;1.00;;;;;;8350334;28;20203;-67
2023/05/23 03:25:52;;;;;;;6.13;4.93;;;12.10;1.00;;;;;;8348818;28;20216;-67
2023/05/23 03:29:53;;;;;;;8.23;5.63;;;12.20;1.00;;;;;;8349933;28;20196;-67
2023/05/23 03:33:54;;;;;;;6.80;5.60;;;12.40;1.00;;;;;;8345947;28;20185;-67
2023/05/23 03:37:58;;;;;;;8.03;5.47;;;12.50;1.00;;;;;;8350756;28;20220;-67
2023/05/23 03:41:59;;;;;;;8.90;6.73;;;12.70;1.00;;;;;;8355906;28;20283;-67
2023/05/23 03:46:00;;;;;;;7.77;6.07;;;12.90;99.90;;;;;;8350107;28;20190;-67
2023/05/23 03:50:01;;;;;;;6.60;5.43;;;13.10;99.90;;;;;;8345386;28;20287;-67
2023/05/23 03:54:03;;;;;;;8.70;5.90;;;13.20;99.90;;;;;;8349080;28;20181;-67
2023/05/23 03:58:04;;;;;;;6.67;5.63;;;13.30;99.90;;;;;;8347517;28;20210;-67
2023/05/23 04:02:08;;;;;;;9.53;6.27;;;13.50;99.90;;;;;;8341095;28;20287;-67
2023/05/23 04:06:09;;;;;;;6.83;5.70;;;13.70;99.90;;;;;;8358983;28;20196;-68
2023/05/23 04:10:13;;;;;;;8.43;5.93;;;14.00;99.90;;;;;;8348814;28;20199;-67
2023/05/23 04:14:21;;;;;;;7.83;5.87;;;14.30;99.90;;;;;;8344915;28;20255;-67
2023/05/23 04:18:22;;;;;;;7.00;5.00;;;14.40;99.90;;;;;;8350436;28;20218;-67
2023/05/23 04:22:26;;;;;;;5.67;5.03;;;14.40;99.90;;;;;;8345751;28;20331;-67
2023/05/23 04:26:27;;;;;;;9.03;5.43;;;14.30;99.90;;;;;;8366175;28;20237;-67
2023/05/23 04:30:29;;;;;;;7.10;5.87;;;14.30;99.90;;;;;;8340375;28;20189;-67
2023/05/23 04:34:32;;;;;;;7.73;6.47;;;14.20;99.90;;;;;;8348461;28;20185;-67
2023/05/23 04:38:37;;;;;;;13.23;6.93;;;14.20;99.90;;;;;;8344693;28;20216;-67
2023/05/23 04:42:41;;;;;;;9.53;7.27;;;14.20;99.90;;;;;;8347212;28;20189;-67
2023/05/23 04:46:44;;;;;;;9.13;6.40;;;14.20;99.90;;;;;;8346460;28;20271;-66
2023/05/23 04:50:50;;;;;;;9.73;6.33;;;14.30;99.90;;;;;;8344443;28;20185;-66
2023/05/23 04:54:52;;;;;;;10.00;6.93;;;14.40;99.90;;;;;;8343529;28;20185;-67
2023/05/23 04:58:54;;;;;;;12.47;7.73;;;14.70;99.90;;;;;;8344461;28;20289;-67
2023/05/23 05:02:58;;;;;;;13.47;8.37;;;15.10;99.90;;;;;;8339684;28;20205;-67
2023/05/23 05:07:02;;;;;;;10.30;7.57;;;15.50;99.90;;;;;;8346191;28;20247;-67
2023/05/23 05:11:04;;;;;;;12.33;8.23;;;15.90;99.90;;;;;;8346896;28;20192;-66
2023/05/23 05:15:06;;;;;;;10.03;8.10;;;16.20;96.70;;;;;;8343339;28;20178;-68
2023/05/23 05:19:07;;;;;;;10.63;7.40;;;16.50;85.10;;;;;;8346214;28;20219;-67
2023/05/23 05:23:10;;;;;;;14.47;8.03;;;16.90;45.30;;;;;;8344163;28;20192;-67
2023/05/23 05:27:11;;;;;;;12.40;7.10;;;17.10;29.60;;;;;;8349406;28;20196;-67
2023/05/23 05:31:14;;;;;;;10.23;6.70;;;17.30;22.90;;;;;;8345343;28;20189;-67
2023/05/23 05:35:15;;;;;;;7.03;5.50;;;17.50;20.00;;;;;;8343720;28;20247;-66
2023/05/23 05:39:17;;;;;;;15.27;6.80;;;17.80;4.20;;;;;;8343968;28;20213;-66
2023/05/23 05:43:21;;;;;;;8.00;6.30;;;18.00;5.10;;;;;;8342492;28;20280;-67
2023/05/23 05:47:22;;;;;;;8.03;6.37;;;18.30;1.00;;;;;;8339731;28;20242;-67
2023/05/23 05:51:23;;;;;;;10.70;6.13;;;18.30;1.00;;;;;;8346828;28;20220;-66
2023/05/23 05:55:24;;;;;;;9.00;7.07;;;18.40;1.00;;;;;;8344790;28;20301;-67
2023/05/23 05:59:28;;;;;;;7.57;6.27;;;18.40;1.00;;;;;;8344192;28;20233;-66
2023/05/23 06:03:33;;;;;;;10.63;6.87;;;18.50;1.00;;;;;;8335111;28;20206;-67
2023/05/23 06:07:34;;;;;;;8.93;6.03;;;18.50;1.00;;;;;;8338955;28;20205;-65
2023/05/23 06:11:39;;;;;;;8.37;6.30;;;18.40;1.00;;;;;;8342313;28;20194;-66
2023/05/23 06:15:40;;;;;;;10.47;6.03;;;18.20;1.00;;;;;;8347923;28;20186;-66
2023/05/23 06:19:43;;;;;;;13.43;7.37;;;18.00;1.10;;;;;;8348238;28;20218;-66
2023/05/23 06:23:44;;;;;;;9.87;7.23;;;17.60;30.00;;;;;;8345582;28;20187;-67
2023/05/23 06:27:45;;;;;;;10.03;6.93;;;17.20;91.20;;;;;;8351839;28;20220;-67
2023/05/23 06:31:46;;;;;;;9.03;6.30;;;17.00;99.90;;;;;;8354022;28;20191;-65
2023/05/23 06:35:52;;;;;;;9.13;6.93;;;16.80;99.90;;;;;;8352994;28;20186;-66
2023/05/23 06:39:53;;;;;;;9.03;6.43;;;16.70;99.90;;;;;;8350697;28;20360;-65
2023/05/23 06:43:54;;;;;;;12.77;8.20;;;16.70;99.90;;;;;;8354634;28;20186;-65
2023/05/23 06:47:55;;;;;;;11.27;8.03;;;16.70;99.90;;;;;;8345058;28;20324;-64
2023/05/23 06:51:56;;;;;;;10.90;8.53;;;16.80;99.90;;;;;;8350042;28;20186;-66
2023/05/23 06:55:57;;;;;;;11.03;9.03;;;16.80;99.90;;;;;;8346288;28;20216;-65
2023/05/23 06:59:59;;;;;;;11.83;8.77;;;16.70;99.90;;;;;;8349838;28;20205;-65
2023/05/23 07:04:03;;;;;;;12.03;9.20;;;16.90;99.90;;;;;;8347138;28;20271;-65
2023/05/23 07:08:05;;;;;;;13.13;8.77;;;17.40;99.90;;;;;;8362312;28;20199;-65
2023/05/23 07:12:06;;;;;;;15.27;8.70;;;18.00;99.90;;;;;;8345085;28;20292;-66
2023/05/23 07:16:07;;;;;;;10.43;7.73;;;18.60;99.90;;;;;;8346526;28;20232;-64
2023/05/23 07:20:08;;;;;;;8.47;6.67;;;18.90;99.90;;;;;;8348092;28;20182;-66
2023/05/23 07:24:09;;;;;;;8.77;7.37;;;19.00;99.90;;;;;;8344603;28;20186;-66
2023/05/23 07:28:10;;;;;;;9.93;7.17;;;19.10;99.90;;;;;;8350226;28;20182;-66
2023/05/23 07:32:12;;;;;;;9.37;6.93;;;19.10;99.90;;;;;;8348871;28;20215;-66
2023/05/23 07:36:13;;;;;;;8.77;7.60;;;19.00;99.90;;;;;;8340614;28;20217;-65
2023/05/23 07:40:14;;;;;;;9.07;7.93;;;19.00;99.90;;;;;;8359010;28;20297;-66
2023/05/23 07:44:17;;;;;;;6.97;6.37;;;18.80;99.90;;;;;;8351569;28;20193;-66
2023/05/23 07:48:19;;;;;;;8.57;6.50;;;18.60;99.90;;;;;;8363216;28;20216;-66
2023/05/23 07:52:20;;;;;;;9.07;7.37;;;18.80;99.90;;;;;;8347480;28;20210;-66
2023/05/23 07:56:22;;;;;;;10.73;7.80;;;19.20;99.90;;;;;;8349366;28;20222;-65
2023/05/23 08:00:23;;;;;;;9.80;8.00;;;19.40;99.90;;;;;;8362162;28;20253;-66
2023/05/23 08:04:24;;;;;;;10.03;8.83;;;19.10;99.90;;;;;;8362394;28;20202;-65
2023/05/23 08:08:28;;;;;;;12.03;8.27;;;18.70;1.00;;;;;;8349864;28;20193;-65
2023/05/23 08:12:29;;;;;;;11.37;9.10;;;18.30;1.00;;;;;;8353018;28;20269;-66
2023/05/23 08:16:30;;;;;;;8.23;6.47;;;18.40;99.90;;;;;;8349414;28;20292;-66
2023/05/23 08:20:31;;;;;;;7.33;6.33;;;18.90;1.00;;;;;;8344979;28;20263;-66
2023/05/23 08:24:33;;;;;;;7.70;6.30;;;19.20;99.90;;;;;;8340622;28;20269;-63
2023/05/23 08:28:34;;;;;;;9.33;6.70;;;19.70;99.90;;;;;;8343078;28;20195;-64
2023/05/23 08:32:35;;;;;;;7.53;5.50;;;20.30;99.90;;;;;;8344887;28;20275;-64
2023/05/23 08:36:38;;;;;;;8.17;4.90;;;20.30;99.90;;;;;;8348743;28;20253;-65
2023/05/23 08:40:49;;;;;;;9.23;5.07;;;21.00;99.90;;;;;;8346840;28;20189;-68
2023/05/23 08:44:54;;;;;;;7.67;5.00;;;21.10;99.90;;;;;;8338657;28;20182;-65
2023/05/23 08:48:57;;;;;;;7.27;4.87;;;21.60;99.90;;;;;;8345951;28;20190;-65
2023/05/23 08:53:03;;;;;;;5.10;4.03;;;21.80;96.70;;;;;;8344152;28;20190;-67
2023/05/23 08:57:04;;;;;;;6.00;5.07;;;21.70;97.70;;;;;;8347393;28;20319;-67
2023/05/23 09:01:06;;;;;;;6.27;5.60;;;21.70;94.60;;;;;;8346042;28;20174;-69
2023/05/23 09:05:08;;;;;;;5.33;4.70;;;21.40;99.90;;;;;;8353083;28;20208;-67
2023/05/23 09:09:09;;;;;;;10.17;5.57;;;20.90;99.90;;;;;;8344401;28;20342;-68
2023/05/23 09:13:10;;;;;;;6.57;5.23;;;20.30;99.90;;;;;;8338713;28;20216;-68
2023/05/23 09:17:17;;;;;;;8.17;5.50;;;20.00;99.90;;;;;;8347067;28;20218;-66
2023/05/23 09:21:18;;;;;;;6.20;5.43;;;20.20;99.90;;;;;;8338921;28;20197;-65
2023/05/23 09:25:19;;;;;;;8.07;5.50;;;20.30;99.90;;;;;;8350546;28;20205;-65
2023/05/23 09:29:20;;;;;;;6.30;5.43;;;20.30;99.90;;;;;;8340408;28;20241;-66
2023/05/23 09:33:21;;;;;;;6.20;5.10;;;20.70;99.90;;;;;;8342898;28;20193;-66
2023/05/23 09:38:00;;;;;;;6.13;5.13;;;21.00;99.90;;;;;;8343102;28;20324;-64
2023/05/23 09:42:01;;;;;;;6.80;5.30;;;21.20;99.90;;;;;;8332003;28;20201;-67
2023/05/23 09:46:11;;;;;;;5.73;4.47;;;21.10;99.90;;;;;;8345523;28;20207;-66
2023/05/23 09:50:13;;;;;;;6.33;4.30;;;21.30;99.90;;;;;;8350840;28;20197;-66
2023/05/23 09:54:14;;;;;;;8.13;5.20;;;21.60;99.90;;;;;;8346041;28;20201;-65
2023/05/23 09:58:18;;;;;;;5.73;5.00;;;21.60;99.90;;;;;;8349469;28;20220;-69
2023/05/23 10:02:39;;;;;;;8.13;5.07;;;21.60;99.90;;;;;;8350386;28;20237;-68
2023/05/23 10:06:45;;;;;;;7.10;5.03;;;21.20;99.90;;;;;;8351385;28;20251;-69
2023/05/23 10:10:55;;;;;;;5.20;4.70;;;21.60;99.90;;;;;;8346322;28;20209;-67
2023/05/23 10:15:01;;;;;;;5.87;5.03;;;21.60;99.90;;;;;;8359375;28;20194;-69
2023/05/23 10:19:15;;;;;;;6.07;4.43;;;21.70;99.90;;;;;;8368421;28;20208;-64
2023/05/23 10:23:16;;;;;;;6.20;4.47;;;21.30;90.30;;;;;;8363095;28;20210;-69
2023/05/23 10:27:18;;;;;;;4.40;3.90;;;21.40;99.80;;;;;;8348261;28;20276;-64
2023/05/23 10:31:20;;;;;;;5.37;4.87;;;21.70;69.40;;;;;;8347169;28;20285;-66
2023/05/23 10:35:32;;;;;;;5.20;4.47;;;22.30;31.50;;;;;;8348717;28;20197;-65
2023/05/23 10:39:51;;;;;;;7.47;5.30;;;22.50;26.30;;;;;;8346251;28;20385;-65
2023/05/23 10:44:26;;;;;;;5.60;5.10;;;23.00;25.20;;;;;;8347271;28;20189;-70
2023/05/23 10:48:35;;;;;;;6.87;4.87;;;23.50;6.20;;;;;;8347848;28;20193;-66
2023/05/23 10:52:40;;;;;;;6.57;4.83;;;23.30;7.20;;;;;;8345194;28;20194;-68
2023/05/23 10:56:42;;;;;;;6.13;4.90;;;23.00;21.20;;;;;;8349647;28;20218;-66
2023/05/23 11:00:59;;;;;;;8.90;5.70;;;22.50;76.70;;;;;;8363439;28;20192;-66
2023/05/23 11:05:21;;;;;;;7.90;5.37;;;22.20;99.90;;;;;;8339875;28;20340;-65
2023/05/23 11:09:22;;;;;;;9.03;5.43;;;21.80;99.90;;;;;;8346179;28;20281;-65
2023/05/23 11:13:23;;;;;;;8.40;5.47;;;21.50;99.90;;;;;;8344504;28;20197;-67
2023/05/23 11:17:32;;;;;;;10.07;5.77;;;21.20;99.90;;;;;;8352074;28;20296;-66
2023/05/23 11:21:33;;;;;;;13.07;6.13;;;21.10;99.90;;;;;;8336579;28;20241;-65
2023/05/23 11:25:41;;;;;;;10.10;6.57;;;21.20;1.00;;;;;;8349557;28;20218;-66
2023/05/23 11:29:43;;;;;;;7.60;6.67;;;21.40;99.90;;;;;;8350828;28;20193;-66
2023/05/23 11:33:44;;;;;;;8.53;6.87;;;21.70;99.90;;;;;;8342158;28;20253;-67
2023/05/23 11:37:46;;;;;;;8.37;6.90;;;21.60;99.90;;;;;;8351492;28;20266;-67
2023/05/23 11:42:00;;;;;;;7.97;7.17;;;21.70;99.90;;;;;;8343408;28;20185;-66
2023/05/23 11:46:08;;;;;;;8.00;7.20;;;21.20;99.90;;;;;;8345645;28;20273;-66
2023/05/23 11:50:09;;;;;;;8.67;7.77;;;21.00;99.90;;;;;;8334005;28;20189;-65
2023/05/23 11:54:10;;;;;;;9.77;8.73;;;21.40;99.90;;;;;;8349918;28;20186;-64
2023/05/23 11:58:11;;;;;;;9.93;8.63;;;21.90;99.90;;;;;;8347204;28;20316;-65
2023/05/23 12:02:12;;;;;;;10.07;9.03;;;22.40;99.90;;;;;;8348130;28;20262;-64
2023/05/23 12:06:23;;;;;;;10.73;9.33;;;22.80;99.90;;;;;;8342689;28;20189;-64
2023/05/23 12:10:27;;;;;;;10.97;9.93;;;23.20;94.50;;;;;;8343924;28;20206;-65
2023/05/23 12:14:28;;;;;;;12.70;10.23;;;23.50;31.20;;;;;;8344585;28;20189;-63
2023/05/23 12:18:31;;;;;;;10.50;9.60;;;22.60;4.80;;;;;;8341378;28;20227;-64
2023/05/23 12:22:32;;;;;;;10.53;9.53;;;22.00;36.60;;;;;;8352947;28;20190;-65
2023/05/23 12:26:44;;;;;;;9.30;8.40;;;22.30;84.20;;;;;;8338533;28;20218;-66
2023/05/23 12:30:46;;;;;;;9.77;8.90;;;23.20;66.70;;;;;;8356840;28;20194;-65
2023/05/23 12:34:48;;;;;;;10.43;8.83;;;23.80;5.70;;;;;;8345995;28;20208;-64
2023/05/23 12:38:50;;;;;;;8.27;7.40;;;24.20;1.00;;;;;;8333537;28;20321;-65
2023/05/23 12:42:59;;;;;;;8.95;8.10;;;24.50;9.20;;;;;;8349938;28;20265;-65
2023/05/23 12:47:02;;;;;;;10.25;8.00;;;25.20;1.00;;;;;;8348253;28;20218;-65
2023/05/23 12:51:03;;;;;;;9.25;8.35;;;24.80;1.00;;;;;;8348784;28;20192;-65
2023/05/23 12:55:05;;;;;;;11.50;8.30;;;24.50;1.00;;;;;;8349599;28;20221;-65
2023/05/23 12:59:06;;;;;;;8.68;7.88;;;24.80;1.00;;;;;;8341858;28;20213;-65
2023/05/23 13:03:10;;;;;;;8.75;7.95;;;24.60;1.00;;;;;;8340923;28;20204;-64
2023/05/23 13:07:11;;;;;;;8.82;7.65;;;25.10;1.00;;;;;;8346773;28;20197;-65
2023/05/23 13:11:12;;;;;;;8.45;7.47;;;25.20;1.00;;;;;;8348321;28;20281;-65
2023/05/23 13:15:13;;;;;;;7.22;6.57;;;25.50;1.00;;;;;;8340836;28;20320;-67
2023/05/23 13:19:18;;;;;;;10.75;6.80;;;25.40;1.00;;;;;;8344061;28;20210;-66
2023/05/23 13:23:19;;;;;;;11.75;8.60;;;24.90;1.00;;;;;;8337089;28;20217;-65
2023/05/23 13:27:20;;;;;;;8.93;8.03;;;23.80;1.00;;;;;;8346088;28;20189;-66
2023/05/23 13:31:21;;;;;;;8.30;6.93;;;22.90;1.00;;;;;;8349762;28;20198;-65
2023/05/23 13:35:23;;;;;;;7.63;6.53;;;22.00;1.00;;;;;;8345587;28;20256;-65
2023/05/23 13:39:24;;;;;;;7.10;6.40;;;21.90;1.00;;;;;;8343266;28;20205;-66
2023/05/23 13:43:28;;;;;;;8.37;6.97;;;21.90;1.00;;;;;;8344975;28;20182;-65
2023/05/23 13:47:29;;;;;;;7.30;6.27;;;21.90;1.00;;;;;;8326511;28;20193;-64
2023/05/23 13:51:31;;;;;;;7.20;6.50;;;22.10;1.00;;;;;;8339261;28;20301;-65
2023/05/23 13:55:32;;;;;;;7.70;6.80;;;22.30;2.80;;;;;;8338940;28;20189;-65
2023/05/23 13:59:33;;;;;;;10.23;7.57;;;22.90;1.00;;;;;;8339869;28;20290;-66
2023/05/23 14:03:35;;;;;;;8.30;7.17;;;23.40;1.00;;;;;;8349109;28;20343;-66
2023/05/23 14:07:37;;;;;;;10.20;8.27;;;22.80;1.00;;;;;;8324416;28;20194;-66
2023/05/23 14:11:38;;;;;;;10.33;7.27;;;22.50;1.00;;;;;;8345625;28;20189;-65
2023/05/23 14:15:40;;;;;;;9.43;8.13;;;22.10;1.00;;;;;;8340120;28;20178;-65
2023/05/23 14:19:41;;;;;;;9.30;8.03;;;21.80;14.80;;;;;;8342541;28;20217;-65
2023/05/23 14:23:48;;;;;;;9.87;8.87;;;21.90;29.30;;;;;;8340520;28;20197;-64
2023/05/23 14:27:49;;;;;;;9.80;8.80;;;22.00;59.00;;;;;;8344506;28;20193;-65
2023/05/23 14:31:50;;;;;;;9.83;8.83;;;21.80;99.90;;;;;;8347913;28;20189;-64
2023/05/23 14:35:52;;;;;;;10.27;9.23;;;21.70;99.90;;;;;;8336158;28;20276;-64
2023/05/23 14:39:53;;;;;;;10.30;9.27;;;22.00;99.90;;;;;;8345728;28;20292;-64
2023/05/23 14:43:54;;;;;;;14.27;9.03;;;22.30;99.90;;;;;;8346642;28;20189;-64
2023/05/23 14:47:55;;;;;;;10.40;8.93;;;22.40;99.90;;;;;;8345601;28;20197;-63
2023/05/23 14:51:56;;;;;;;9.90;9.00;;;22.40;99.90;;;;;;8354540;28;20247;-64
2023/05/23 15:00:55;;;;;;;28.43;17.60;;;22.20;99.90;;;;;;8347390;28;20204;-65
2023/05/23 15:04:56;;;;;;;13.67;11.33;;;22.00;99.90;;;;;;8344941;28;20287;-65
2023/05/23 15:08:57;;;;;;;12.53;10.83;;;21.90;99.90;;;;;;8349154;28;20205;-65
2023/05/23 15:12:58;;;;;;;16.97;12.47;;;21.80;99.90;;;;;;8342962;28;20190;-66
2023/05/23 15:17:06;;;;;;;12.10;10.37;;;21.50;99.90;;;;;;8347975;28;20208;-65
2023/05/23 15:21:07;;;;;;;10.40;9.40;;;21.30;99.90;;;;;;8363782;28;20184;-65
2023/05/23 15:25:09;;;;;;;10.83;9.73;;;21.00;99.90;;;;;;8366187;28;20174;-67
2023/05/23 15:29:11;;;;;;;15.53;8.90;;;20.60;99.90;;;;;;8350338;28;20277;-63
2023/05/23 15:33:12;;;;;;;19.57;13.50;;;19.90;1.00;;;;;;8343310;28;20292;-64
2023/05/23 15:37:13;;;;;;;9.87;8.87;;;19.60;1.00;;;;;;8337807;28;20201;-63
2023/05/23 15:41:16;;;;;;;18.33;11.60;;;19.10;1.00;;;;;;8347377;28;20236;-65
2023/05/23 15:45:21;;;;;;;9.40;8.10;;;18.70;99.90;;;;;;8348589;28;20233;-65
2023/05/23 15:49:21;;;;;;;10.83;9.00;;;18.30;99.90;;;;;;8345974;28;20201;-65
2023/05/23 15:53:23;;;;;;;16.03;10.37;;;18.30;1.00;;;;;;8354399;28;20189;-65
2023/05/23 15:57:24;;;;;;;14.60;11.33;;;18.30;88.70;;;;;;8348342;28;20256;-65
2023/05/23 16:01:25;;;;;;;14.20;11.40;;;18.50;1.00;;;;;;8343295;28;20312;-65
2023/05/23 16:05:26;;;;;;;12.03;10.83;;;18.50;1.00;;;;;;8348458;28;20206;-65
2023/05/23 16:09:27;;;;;;;11.83;10.63;;;18.30;99.90;;;;;;8345436;28;20228;-67
2023/05/23 16:13:28;;;;;;;15.30;12.23;;;18.30;99.90;;;;;;8345695;28;20192;-65
2023/05/23 16:17:29;;;;;;;12.37;10.50;;;18.60;1.00;;;;;;8350404;28;20217;-67
2023/05/23 16:21:31;;;;;;;13.07;9.47;;;18.70;89.40;;;;;;8347732;28;20212;-63
2023/05/23 16:25:31;;;;;;;11.60;8.13;;;18.70;1.00;;;;;;8344226;28;20359;-65
2023/05/23 16:29:33;;;;;;;17.13;8.20;;;18.60;99.90;;;;;;8345603;28;20205;-66
2023/05/23 16:33:34;;;;;;;12.73;7.60;;;18.50;99.90;;;;;;8347094;28;20205;-66
2023/05/23 16:37:36;;;;;;;9.67;7.57;;;18.50;99.90;;;;;;8340163;28;20202;-65
2023/05/23 16:41:38;;;;;;;11.60;8.73;;;18.50;99.90;;;;;;8344767;28;20183;-64
2023/05/23 16:45:41;;;;;;;13.37;8.87;;;18.40;99.90;;;;;;8342094;28;20236;-64
2023/05/23 16:49:42;;;;;;;19.07;11.30;;;18.30;99.90;;;;;;8345550;28;20198;-64
2023/05/23 16:53:43;;;;;;;13.33;8.37;;;18.30;99.90;;;;;;8344265;28;20283;-64
2023/05/23 16:57:45;;;;;;;10.33;8.87;;;18.20;99.90;;;;;;8362507;28;20220;-65
2023/05/23 17:01:46;;;;;;;9.40;6.90;;;18.20;99.90;;;;;;8341539;28;20207;-62
2023/05/23 17:05:47;;;;;;;8.73;6.07;;;18.30;99.90;;;;;;8345438;28;20206;-64
2023/05/23 17:09:50;;;;;;;12.63;6.63;;;18.40;99.90;;;;;;8344489;28;20210;-65
2023/05/23 17:13:51;;;;;;;7.73;6.70;;;18.40;99.90;;;;;;8346100;28;20193;-64
2023/05/23 17:17:52;;;;;;;7.43;6.77;;;18.40;99.90;;;;;;8343565;28;20214;-64
2023/05/23 17:21:53;;;;;;;8.70;6.53;;;18.40;99.90;;;;;;8347636;28;20196;-65
2023/05/23 17:25:55;;;;;;;7.37;6.10;;;18.40;99.90;;;;;;8347710;28;20220;-66
2023/05/23 17:29:56;;;;;;;10.07;7.47;;;18.60;99.90;;;;;;8347355;28;20223;-64
2023/05/23 17:33:58;;;;;;;7.63;6.13;;;18.60;99.90;;;;;;8342207;28;20297;-64
2023/05/23 17:38:01;;;;;;;7.50;6.80;;;18.30;99.90;;;;;;8346249;28;20335;-65
2023/05/23 17:42:02;;;;;;;10.30;6.60;;;18.10;99.90;;;;;;8345229;28;20191;-65
2023/05/23 17:46:04;;;;;;;10.07;6.77;;;18.00;99.90;;;;;;8338881;28;20332;-65
2023/05/23 17:50:08;;;;;;;6.70;6.10;;;17.80;99.90;;;;;;8345171;28;20213;-64
2023/05/23 17:54:09;;;;;;;7.23;5.73;;;17.70;99.90;;;;;;8340078;28;20190;-66
2023/05/23 17:58:11;;;;;;;6.90;5.97;;;17.60;99.90;;;;;;8344501;28;20206;-65
2023/05/23 18:02:12;;;;;;;6.10;5.50;;;17.60;99.90;;;;;;8340011;28;20189;-64
2023/05/23 18:06:16;;;;;;;7.50;6.37;;;17.60;99.90;;;;;;8345446;28;20222;-65
2023/05/23 18:10:18;;;;;;;6.63;5.97;;;17.50;99.90;;;;;;8343959;28;20251;-64
2023/05/23 18:14:20;;;;;;;7.33;6.13;;;17.60;99.90;;;;;;8353630;28;20186;-65
2023/05/23 18:18:24;;;;;;;6.57;5.97;;;17.60;99.90;;;;;;8343560;28;20225;-65
2023/05/23 18:22:25;;;;;;;6.27;5.77;;;17.50;99.90;;;;;;8358789;28;20201;-65
2023/05/23 18:26:27;;;;;;;6.43;5.03;;;17.50;99.90;;;;;;8342525;28;20243;-63
2023/05/23 18:30:28;;;;;;;7.47;5.77;;;17.30;99.90;;;;;;8351870;28;20217;-66
2023/05/23 18:34:29;;;;;;;6.07;5.40;;;17.30;99.90;;;;;;8351274;28;20214;-63
2023/05/23 18:38:32;;;;;;;6.67;5.97;;;17.20;99.90;;;;;;8349081;28;20325;-64
2023/05/23 18:42:36;;;;;;;8.37;6.03;;;17.10;99.90;;;;;;8350282;28;20185;-65
2023/05/23 18:46:40;;;;;;;7.17;6.40;;;17.00;99.90;;;;;;8344879;28;20222;-65
2023/05/23 18:50:41;;;;;;;6.50;5.80;;;17.00;99.90;;;;;;8351790;28;20235;-63
2023/05/23 18:54:42;;;;;;;6.23;5.63;;;16.90;99.90;;;;;;8348416;28;20210;-64
2023/05/23 18:58:47;;;;;;;6.27;4.93;;;16.80;99.90;;;;;;8337106;28;20216;-63
2023/05/23 19:02:48;;;;;;;5.67;5.07;;;16.70;99.90;;;;;;8354682;28;20209;-66
2023/05/23 19:06:51;;;;;;;6.23;5.37;;;16.70;99.90;;;;;;8353582;28;20247;-64
2023/05/23 19:10:52;;;;;;;5.67;5.07;;;16.60;99.90;;;;;;8337459;28;20244;-66
2023/05/23 19:14:57;;;;;;;7.23;5.30;;;16.60;99.90;;;;;;8352450;28;20234;-66
2023/05/23 19:19:00;;;;;;;5.87;5.27;;;16.50;99.90;;;;;;8347910;28;20257;-61
2023/05/23 19:23:01;;;;;;;7.60;5.60;;;16.40;99.90;;;;;;8350412;28;20236;-63
2023/05/23 19:27:03;;;;;;;7.60;6.60;;;16.30;99.90;;;;;;8346159;28;20190;-63
2023/05/23 19:31:06;;;;;;;8.43;6.53;;;16.20;99.90;;;;;;8330310;28;20194;-63
2023/05/23 19:35:07;;;;;;;7.33;6.63;;;16.10;1.00;;;;;;8348330;28;20186;-63
2023/05/23 19:39:11;;;;;;;7.40;6.70;;;16.00;1.00;;;;;;8349906;28;20274;-63
2023/05/23 19:43:12;;;;;;;7.00;6.30;;;16.00;1.00;;;;;;8339492;28;20183;-63
2023/05/23 19:47:13;;;;;;;7.53;6.83;;;15.90;1.00;;;;;;8350621;28;20210;-62
2023/05/23 19:51:15;;;;;;;7.23;6.53;;;15.90;1.00;;;;;;8343196;28;20189;-62
2023/05/23 19:55:16;;;;;;;7.63;6.93;;;15.90;1.00;;;;;;8348181;28;20205;-63
2023/05/23 19:59:17;;;;;;;8.13;6.27;;;15.90;1.00;;;;;;8329588;28;20302;-63
2023/05/23 20:03:18;;;;;;;7.67;6.87;;;15.90;1.00;;;;;;8337339;28;20208;-62
2023/05/23 20:07:19;;;;;;;9.67;7.97;;;15.90;1.00;;;;;;8340407;28;20265;-62
2023/05/23 20:11:21;;;;;;;8.03;7.20;;;15.90;26.90;;;;;;8341512;28;20201;-62
2023/05/23 20:15:25;;;;;;;8.93;8.00;;;15.80;64.70;;;;;;8340015;28;20195;-62
2023/05/23 20:19:26;;;;;;;8.40;7.40;;;15.80;69.60;;;;;;8346990;28;20253;-64
2023/05/23 20:23:27;;;;;;;8.03;7.27;;;15.80;48.90;;;;;;8347228;28;20194;-63
2023/05/23 20:27:29;;;;;;;11.07;7.87;;;15.80;99.90;;;;;;8343266;28;20194;-65
2023/05/23 20:31:30;;;;;;;8.70;7.90;;;15.80;94.30;;;;;;8350362;28;20251;-63
2023/05/23 20:35:31;;;;;;;8.77;7.97;;;15.80;99.90;;;;;;8329332;28;20193;-63
2023/05/23 20:39:32;;;;;;;7.87;7.07;;;15.80;99.90;;;;;;8331210;28;20218;-63
2023/05/23 20:43:36;;;;;;;6.67;5.60;;;15.80;99.90;;;;;;8348767;28;20194;-62
2023/05/23 20:47:40;;;;;;;6.10;5.50;;;15.80;99.90;;;;;;8348884;28;20214;-62
2023/05/23 20:51:42;;;;;;;5.13;4.70;;;15.70;99.90;;;;;;8342446;28;20305;-63
2023/05/23 20:55:43;;;;;;;6.23;3.77;;;15.60;1.00;;;;;;8329868;28;20233;-63
2023/05/23 20:59:44;;;;;;;5.10;4.67;;;15.30;99.90;;;;;;8340401;28;20220;-62
2023/05/23 21:03:46;;;;;;;8.97;6.53;;;15.00;99.90;;;;;;8344926;28;20206;-62
2023/05/23 21:07:47;;;;;;;6.30;5.70;;;14.60;1.00;;;;;;8341305;28;20308;-62